Terminal Aerodrome Forecast
Issued by NWS

Home | Current Version | Previous Version | Text Only | Print | Product List | Glossary On
Versions: 1 2 3 4 5 6 7 8 9 10 11 12 13 14 15
000
FTUS43 KPAH 221044 AAA
TAFOWB
TAF AMD
KOWB 221044Z 2211/2306 00000KT P6SM SCT040
      TEMPO 2213/2215 34015G30KT 3SM TSRA BR BKN025CB
     FM221500 24005KT P6SM SCT050 BKN250=

USA.gov is the U.S. government's official web portal to all federal, state and local government web resources and services.